sensor_id;sensor_type;location;lat;lon;timestamp;pressure;altitude;pressure_sealevel;temperature;humidity
55032;BME280;40928;51.076;7.950;2024-02-15T00:02:22;97250.63;;;9.17;100.00
55032;BME280;40928;51.076;7.950;2024-02-15T00:04:48;97245.88;;;9.19;100.00
55032;BME280;40928;51.076;7.950;2024-02-15T00:07:14;97250.03;;;9.14;100.00
55032;BME280;40928;51.076;7.950;2024-02-15T00:09:39;97245.13;;;9.11;100.00
55032;BME280;40928;51.076;7.950;2024-02-15T00:12:05;97258.25;;;9.13;100.00
55032;BME280;40928;51.076;7.950;2024-02-15T00:14:31;97255.78;;;9.11;100.00
55032;BME280;40928;51.076;7.950;2024-02-15T00:16:57;97249.00;;;9.16;100.00
55032;BME280;40928;51.076;7.950;2024-02-15T00:19:23;97257.66;;;9.11;100.00
55032;BME280;40928;51.076;7.950;2024-02-15T00:21:50;97250.94;;;9.08;100.00
55032;BME280;40928;51.076;7.950;2024-02-15T00:24:16;97250.94;;;9.08;100.00
55032;BME280;40928;51.076;7.950;2024-02-15T00:26:42;97257.50;;;9.06;100.00
55032;BME280;40928;51.076;7.950;2024-02-15T00:29:08;97255.44;;;9.08;100.00
55032;BME280;40928;51.076;7.950;2024-02-15T00:31:34;97255.78;;;9.11;100.00
55032;BME280;40928;51.076;7.950;2024-02-15T00:34:03;97262.75;;;9.12;100.00
55032;BME280;40928;51.076;7.950;2024-02-15T00:36:29;97264.38;;;9.13;100.00
55032;BME280;40928;51.076;7.950;2024-02-15T00:38:59;97250.03;;;9.14;100.00
55032;BME280;40928;51.076;7.950;2024-02-15T00:41:27;97257.66;;;9.11;100.00
55032;BME280;40928;51.076;7.950;2024-02-15T00:43:56;97264.88;;;9.22;100.00
55032;BME280;40928;51.076;7.950;2024-02-15T00:46:24;97253.28;;;9.17;100.00
55032;BME280;40928;51.076;7.950;2024-02-15T00:49:06;97268.47;;;9.16;100.00
55032;BME280;40928;51.076;7.950;2024-02-15T00:51:36;97259.06;;;9.13;100.00
55032;BME280;40928;51.076;7.950;2024-02-15T00:54:02;97253.22;;;9.05;100.00
55032;BME280;40928;51.076;7.950;2024-02-15T00:56:28;97264.84;;;9.10;100.00
55032;BME280;40928;51.076;7.950;2024-02-15T00:58:56;97261.34;;;9.10;100.00
55032;BME280;40928;51.076;7.950;2024-02-15T01:01:22;97270.19;;;9.10;100.00
55032;BME280;40928;51.076;7.950;2024-02-15T01:03:48;97251.28;;;9.12;100.00
55032;BME280;40928;51.076;7.950;2024-02-15T01:06:13;97262.91;;;9.18;100.00
55032;BME280;40928;51.076;7.950;2024-02-15T01:08:39;97256.19;;;9.15;100.00
55032;BME280;40928;51.076;7.950;2024-02-15T01:11:05;97262.53;;;9.33;100.00
55032;BME280;40928;51.076;7.950;2024-02-15T01:13:31;97260.59;;;9.21;100.00
55032;BME280;40928;51.076;7.950;2024-02-15T01:15:57;97263.13;;;9.16;100.00
55032;BME280;40928;51.076;7.950;2024-02-15T01:18:23;97261.06;;;9.18;100.00
55032;BME280;40928;51.076;7.950;2024-02-15T01:20:49;97263.59;;;9.13;100.00
55032;BME280;40928;51.076;7.950;2024-02-15T01:23:15;97269.72;;;9.13;100.00
55032;BME280;40928;51.076;7.950;2024-02-15T01:25:43;97262.53;;;9.14;100.00
55032;BME280;40928;51.076;7.950;2024-02-15T01:28:09;97271.34;;;9.14;100.00
55032;BME280;40928;51.076;7.950;2024-02-15T01:30:35;97266.69;;;9.10;100.00
55032;BME280;40928;51.076;7.950;2024-02-15T01:33:01;97261.59;;;9.08;100.00
55032;BME280;40928;51.076;7.950;2024-02-15T01:35:27;97259.97;;;9.07;100.00
55032;BME280;40928;51.076;7.950;2024-02-15T01:37:53;97266.09;;;9.08;100.00
55032;BME280;40928;51.076;7.950;2024-02-15T01:40:18;97267.72;;;9.09;100.00
55032;BME280;40928;51.076;7.950;2024-02-15T01:42:45;97270.63;;;9.07;100.00
55032;BME280;40928;51.076;7.950;2024-02-15T01:45:10;97265.06;;;9.09;100.00
55032;BME280;40928;51.076;7.950;2024-02-15T01:47:40;97264.69;;;9.05;100.00
55032;BME280;40928;51.076;7.950;2024-02-15T01:50:11;97272.44;;;9.07;100.00
55032;BME280;40928;51.076;7.950;2024-02-15T01:52:37;97276.75;;;9.08;100.00
55032;BME280;40928;51.076;7.950;2024-02-15T01:55:05;97265.50;;;9.06;100.00
55032;BME280;40928;51.076;7.950;2024-02-15T01:57:35;97263.44;;;9.08;100.00
55032;BME280;40928;51.076;7.950;2024-02-15T02:00:04;97270.03;;;9.05;100.00
55032;BME280;40928;51.076;7.950;2024-02-15T02:02:39;97264.63;;;9.12;100.00
55032;BME280;40928;51.076;7.950;2024-02-15T02:05:09;97263.59;;;9.13;100.00
55032;BME280;40928;51.076;7.950;2024-02-15T02:07:36;97256.63;;;9.12;100.00
55032;BME280;40928;51.076;7.950;2024-02-15T02:10:02;97252.94;;;9.13;100.00
55032;BME280;40928;51.076;7.950;2024-02-15T02:12:28;97260.31;;;9.11;100.00
55032;BME280;40928;51.076;7.950;2024-02-15T02:14:54;97265.22;;;9.14;100.00
55032;BME280;40928;51.076;7.950;2024-02-15T02:17:21;97257.22;;;9.14;100.00
55032;BME280;40928;51.076;7.950;2024-02-15T02:19:47;97257.22;;;9.14;100.00
55032;BME280;40928;51.076;7.950;2024-02-15T02:22:17;97255.06;;;9.23;100.00
55032;BME280;40928;51.076;7.950;2024-02-15T02:27:29;97257.34;;;9.19;100.00
55032;BME280;40928;51.076;7.950;2024-02-15T02:29:57;97254.56;;;9.14;100.00
55032;BME280;40928;51.076;7.950;2024-02-15T02:32:25;97253.97;;;9.12;100.00
55032;BME280;40928;51.076;7.950;2024-02-15T02:34:53;97244.78;;;9.08;100.00
55032;BME280;40928;51.076;7.950;2024-02-15T02:37:29;97251.38;;;9.05;100.00
55032;BME280;40928;51.076;7.950;2024-02-15T02:40:08;97241.91;;;9.09;100.00
55032;BME280;40928;51.076;7.950;2024-02-15T02:42:55;97241.09;;;9.09;100.00
55032;BME280;40928;51.076;7.950;2024-02-15T02:45:30;97242.56;;;9.05;100.00
55032;BME280;40928;51.076;7.950;2024-02-15T02:47:55;97243.38;;;9.05;100.00
55032;BME280;40928;51.076;7.950;2024-02-15T02:50:22;97235.59;;;9.04;100.00
55032;BME280;40928;51.076;7.950;2024-02-15T02:52:51;97244.56;;;9.09;100.00
55032;BME280;40928;51.076;7.950;2024-02-15T02:55:17;97240.28;;;9.08;100.00
55032;BME280;40928;51.076;7.950;2024-02-15T02:57:42;97230.94;;;9.18;100.00
55032;BME280;40928;51.076;7.950;2024-02-15T03:00:10;97235.66;;;9.16;100.00
55032;BME280;40928;51.076;7.950;2024-02-15T03:02:48;97232.66;;;9.12;100.00
55032;BME280;40928;51.076;7.950;2024-02-15T03:05:13;97233.09;;;9.09;100.00
55032;BME280;40928;51.076;7.950;2024-02-15T03:07:40;97229.63;;;9.08;100.00
55032;BME280;40928;51.076;7.950;2024-02-15T03:10:09;97231.47;;;9.08;100.00
55032;BME280;40928;51.076;7.950;2024-02-15T03:12:39;97223.13;;;9.04;100.00
55032;BME280;40928;51.076;7.950;2024-02-15T03:15:06;97228.19;;;9.06;100.00
55032;BME280;40928;51.076;7.950;2024-02-15T03:17:42;97237.81;;;9.07;100.00
55032;BME280;40928;51.076;7.950;2024-02-15T03:20:09;97227.56;;;9.10;100.00
55032;BME280;40928;51.076;7.950;2024-02-15T03:25:18;97224.28;;;9.08;100.00
55032;BME280;40928;51.076;7.950;2024-02-15T03:27:44;97217.09;;;9.09;100.00
55032;BME280;40928;51.076;7.950;2024-02-15T03:30:10;97216.91;;;9.10;100.00
55032;BME280;40928;51.076;7.950;2024-02-15T03:32:36;97211.56;;;9.10;100.00
55032;BME280;40928;51.076;7.950;2024-02-15T03:35:02;97209.13;;;9.09;100.00
55032;BME280;40928;51.076;7.950;2024-02-15T03:37:28;97208.91;;;9.10;100.00
55032;BME280;40928;51.076;7.950;2024-02-15T03:39:54;97212.63;;;9.21;100.00
55032;BME280;40928;51.076;7.950;2024-02-15T03:42:20;97215.19;;;9.16;100.00
55032;BME280;40928;51.076;7.950;2024-02-15T03:44:46;97203.78;;;9.09;100.00
55032;BME280;40928;51.076;7.950;2024-02-15T03:47:13;97213.56;;;9.15;100.00
55032;BME280;40928;51.076;7.950;2024-02-15T03:49:41;97220.63;;;9.21;100.00
55032;BME280;40928;51.076;7.950;2024-02-15T03:52:08;97209.84;;;9.16;100.00
55032;BME280;40928;51.076;7.950;2024-02-15T03:54:36;97210.06;;;9.14;100.00
55032;BME280;40928;51.076;7.950;2024-02-15T03:57:02;97209.75;;;9.23;100.00
55032;BME280;40928;51.076;7.950;2024-02-15T03:59:29;97217.63;;;9.18;100.00
55032;BME280;40928;51.076;7.950;2024-02-15T04:01:55;97205.31;;;9.17;100.00
55032;BME280;40928;51.076;7.950;2024-02-15T04:04:21;97213.75;;;9.13;100.00
55032;BME280;40928;51.076;7.950;2024-02-15T04:06:51;97215.59;;;9.32;100.00
55032;BME280;40928;51.076;7.950;2024-02-15T04:09:17;97216.72;;;9.24;100.00
55032;BME280;40928;51.076;7.950;2024-02-15T04:11:44;97212.63;;;9.21;100.00
55032;BME280;40928;51.076;7.950;2024-02-15T04:14:13;97218.66;;;9.17;100.00
55032;BME280;40928;51.076;7.950;2024-02-15T04:16:40;97222.16;;;9.29;100.00
55032;BME280;40928;51.076;7.950;2024-02-15T04:19:06;97218.78;;;9.22;100.00
55032;BME280;40928;51.076;7.950;2024-02-15T04:21:31;97231.16;;;9.16;100.00
55032;BME280;40928;51.076;7.950;2024-02-15T04:24:00;97222.59;;;9.14;100.00
55032;BME280;40928;51.076;7.950;2024-02-15T04:26:29;97220.03;;;9.19;100.00
55032;BME280;40928;51.076;7.950;2024-02-15T04:28:56;97214.78;;;9.12;100.00
55032;BME280;40928;51.076;7.950;2024-02-15T04:31:22;97228.94;;;9.13;100.00
55032;BME280;40928;51.076;7.950;2024-02-15T04:33:54;97232.41;;;9.13;100.00
55032;BME280;40928;51.076;7.950;2024-02-15T04:36:24;97224.13;;;9.22;100.00
55032;BME280;40928;51.076;7.950;2024-02-15T04:38:53;97223.19;;;9.16;100.00
55032;BME280;40928;51.076;7.950;2024-02-15T04:41:19;97218.50;;;9.11;100.00
55032;BME280;40928;51.076;7.950;2024-02-15T04:43:51;97216.31;;;9.08;100.00
55032;BME280;40928;51.076;7.950;2024-02-15T04:46:20;97218.28;;;9.13;100.00
55032;BME280;40928;51.076;7.950;2024-02-15T04:48:50;97214.00;;;9.12;100.00
55032;BME280;40928;51.076;7.950;2024-02-15T04:51:16;97217.09;;;9.09;100.00
55032;BME280;40928;51.076;7.950;2024-02-15T04:53:46;97216.31;;;9.08;100.00
55032;BME280;40928;51.076;7.950;2024-02-15T04:56:15;97219.78;;;9.09;100.00
55032;BME280;40928;51.076;7.950;2024-02-15T04:58:43;97220.59;;;9.09;100.00
55032;BME280;40928;51.076;7.950;2024-02-15T05:01:14;97218.13;;;9.08;100.00
55032;BME280;40928;51.076;7.950;2024-02-15T05:03:42;97214.44;;;9.09;100.00
55032;BME280;40928;51.076;7.950;2024-02-15T05:06:11;97202.59;;;9.05;100.00
55032;BME280;40928;51.076;7.950;2024-02-15T05:08:40;97206.69;;;9.07;100.00
55032;BME280;40928;51.076;7.950;2024-02-15T05:11:12;97205.06;;;9.06;100.00
55032;BME280;40928;51.076;7.950;2024-02-15T05:13:44;97205.66;;;9.08;100.00
55032;BME280;40928;51.076;7.950;2024-02-15T05:16:10;97212.72;;;9.14;100.00
55032;BME280;40928;51.076;7.950;2024-02-15T05:18:36;97209.72;;;9.11;100.00
55032;BME280;40928;51.076;7.950;2024-02-15T05:21:04;97206.00;;;9.12;100.00
55032;BME280;40928;51.076;7.950;2024-02-15T05:23:40;97201.13;;;9.09;100.00
55032;BME280;40928;51.076;7.950;2024-02-15T05:26:08;97192.91;;;9.10;100.00
55032;BME280;40928;51.076;7.950;2024-02-15T05:28:34;97188.63;;;9.09;100.00
55032;BME280;40928;51.076;7.950;2024-02-15T05:31:12;97181.13;;;9.18;100.00
55032;BME280;40928;51.076;7.950;2024-02-15T05:33:38;97172.84;;;9.08;100.00
55032;BME280;40928;51.076;7.950;2024-02-15T05:36:29;97180.41;;;9.11;100.00
55032;BME280;40928;51.076;7.950;2024-02-15T05:38:57;97176.47;;;9.13;100.00
55032;BME280;40928;51.076;7.950;2024-02-15T05:41:23;97180.84;;;9.08;100.00
55032;BME280;40928;51.076;7.950;2024-02-15T05:43:50;97188.84;;;9.08;100.00
55032;BME280;40928;51.076;7.950;2024-02-15T05:46:19;97196.81;;;9.08;100.00
55032;BME280;40928;51.076;7.950;2024-02-15T05:48:48;97198.47;;;9.09;100.00
55032;BME280;40928;51.076;7.950;2024-02-15T05:51:17;97200.09;;;9.10;100.00
55032;BME280;40928;51.076;7.950;2024-02-15T05:53:43;97210.75;;;9.10;100.00
55032;BME280;40928;51.076;7.950;2024-02-15T05:56:09;97209.13;;;9.09;100.00
55032;BME280;40928;51.076;7.950;2024-02-15T05:58:39;97213.16;;;9.11;100.00
55032;BME280;40928;51.076;7.950;2024-02-15T06:01:06;97206.25;;;9.10;100.00
55032;BME280;40928;51.076;7.950;2024-02-15T06:03:34;97201.72;;;9.11;100.00
55032;BME280;40928;51.076;7.950;2024-02-15T06:06:01;97195.78;;;9.09;100.00
55032;BME280;40928;51.076;7.950;2024-02-15T06:08:28;97206.44;;;9.09;100.00
55032;BME280;40928;51.076;7.950;2024-02-15T06:10:56;97205.78;;;9.13;100.00
55032;BME280;40928;51.076;7.950;2024-02-15T06:13:23;97200.00;;;9.17;100.00
55032;BME280;40928;51.076;7.950;2024-02-15T06:15:50;97197.34;;;9.17;100.00
55032;BME280;40928;51.076;7.950;2024-02-15T06:18:26;97192.84;;;9.17;100.00
55032;BME280;40928;51.076;7.950;2024-02-15T06:20:57;97195.50;;;9.17;100.00
55032;BME280;40928;51.076;7.950;2024-02-15T06:23:25;97198.72;;;9.19;100.00
55032;BME280;40928;51.076;7.950;2024-02-15T06:25:56;97203.25;;;9.19;100.00
55032;BME280;40928;51.076;7.950;2024-02-15T06:28:24;97200.81;;;9.17;100.00
55032;BME280;40928;51.076;7.950;2024-02-15T06:31:14;97199.19;;;9.16;100.00
55032;BME280;40928;51.076;7.950;2024-02-15T06:33:58;97203.25;;;9.19;100.00
55032;BME280;40928;51.076;7.950;2024-02-15T06:36:52;97201.19;;;9.21;100.00
55032;BME280;40928;51.076;7.950;2024-02-15T06:39:36;97192.94;;;9.22;100.00
55032;BME280;40928;51.076;7.950;2024-02-15T06:42:10;97195.41;;;9.24;100.00
55032;BME280;40928;51.076;7.950;2024-02-15T06:44:37;97189.25;;;9.23;100.00
55032;BME280;40928;51.076;7.950;2024-02-15T06:47:06;97193.78;;;9.23;100.00
55032;BME280;40928;51.076;7.950;2024-02-15T06:49:32;97196.44;;;9.23;100.00
55032;BME280;40928;51.076;7.950;2024-02-15T06:51:58;97180.22;;;9.24;100.00
55032;BME280;40928;51.076;7.950;2024-02-15T06:54:27;97192.50;;;9.25;100.00
55032;BME280;40928;51.076;7.950;2024-02-15T06:56:53;97182.69;;;9.26;100.00
55032;BME280;40928;51.076;7.950;2024-02-15T06:59:20;97187.75;;;9.27;100.00
55032;BME280;40928;51.076;7.950;2024-02-15T07:01:51;97187.19;;;9.25;100.00
55032;BME280;40928;51.076;7.950;2024-02-15T07:04:18;97199.28;;;9.40;100.00
55032;BME280;40928;51.076;7.950;2024-02-15T07:06:44;97194.28;;;9.32;100.00
55032;BME280;40928;51.076;7.950;2024-02-15T07:09:13;97191.81;;;9.30;100.00
55032;BME280;40928;51.076;7.950;2024-02-15T07:11:44;97195.31;;;9.31;100.00
55032;BME280;40928;51.076;7.950;2024-02-15T07:14:12;97194.88;;;9.34;100.00
55032;BME280;40928;51.076;7.950;2024-02-15T07:16:38;97194.53;;;9.42;100.00
55032;BME280;40928;51.076;7.950;2024-02-15T07:19:03;97197.34;;;9.47;100.00
55032;BME280;40928;51.076;7.950;2024-02-15T07:21:29;97202.19;;;9.38;100.00
55032;BME280;40928;51.076;7.950;2024-02-15T07:23:58;97204.41;;;9.41;100.00
55032;BME280;40928;51.076;7.950;2024-02-15T07:26:24;97197.75;;;9.32;100.00
55032;BME280;40928;51.076;7.950;2024-02-15T07:28:53;97206.78;;;9.31;100.00
55032;BME280;40928;51.076;7.950;2024-02-15T07:31:20;97203.53;;;9.29;100.00
55032;BME280;40928;51.076;7.950;2024-02-15T07:33:50;97207.38;;;9.33;100.00
55032;BME280;40928;51.076;7.950;2024-02-15T07:36:20;97202.63;;;9.35;100.00
55032;BME280;40928;51.076;7.950;2024-02-15T07:38:47;97209.00;;;9.34;100.00
55032;BME280;40928;51.076;7.950;2024-02-15T07:41:23;97200.75;;;9.36;100.00
55032;BME280;40928;51.076;7.950;2024-02-15T07:43:50;97204.25;;;9.36;100.00
55032;BME280;40928;51.076;7.950;2024-02-15T07:46:20;97205.53;;;9.34;100.00
55032;BME280;40928;51.076;7.950;2024-02-15T07:48:47;97200.19;;;9.34;100.00
55032;BME280;40928;51.076;7.950;2024-02-15T07:51:14;97203.31;;;9.31;100.00
55032;BME280;40928;51.076;7.950;2024-02-15T07:53:43;97208.75;;;9.36;100.00
55032;BME280;40928;51.076;7.950;2024-02-15T07:56:10;97207.50;;;9.38;100.00
55032;BME280;40928;51.076;7.950;2024-02-15T07:58:43;97218.16;;;9.38;100.00
55032;BME280;40928;51.076;7.950;2024-02-15T08:01:15;97215.25;;;9.40;100.00
55032;BME280;40928;51.076;7.950;2024-02-15T08:03:41;97216.00;;;9.47;100.00
55032;BME280;40928;51.076;7.950;2024-02-15T08:06:14;97224.94;;;9.53;100.00
55032;BME280;40928;51.076;7.950;2024-02-15T08:08:46;97217.63;;;9.48;100.00
55032;BME280;40928;51.076;7.950;2024-02-15T08:11:15;97214.47;;;9.51;100.00
55032;BME280;40928;51.076;7.950;2024-02-15T08:13:44;97218.44;;;9.49;100.00
55032;BME280;40928;51.076;7.950;2024-02-15T08:16:20;97225.63;;;9.48;100.00
55032;BME280;40928;51.076;7.950;2024-02-15T08:18:48;97225.28;;;9.56;100.00
55032;BME280;40928;51.076;7.950;2024-02-15T08:21:14;97228.41;;;9.53;100.00
55032;BME280;40928;51.076;7.950;2024-02-15T08:23:40;97223.06;;;9.53;100.00
55032;BME280;40928;51.076;7.950;2024-02-15T08:26:06;97227.25;;;9.49;100.00
55032;BME280;40928;51.076;7.950;2024-02-15T08:28:31;97233.03;;;9.46;100.00
55032;BME280;40928;51.076;7.950;2024-02-15T08:30:57;97227.59;;;9.53;100.00
55032;BME280;40928;51.076;7.950;2024-02-15T08:33:24;97215.41;;;9.45;100.00
55032;BME280;40928;51.076;7.950;2024-02-15T08:35:50;97225.38;;;9.50;100.00
55032;BME280;40928;51.076;7.950;2024-02-15T08:38:16;97231.13;;;9.65;100.00
55032;BME280;40928;51.076;7.950;2024-02-15T08:40:42;97229.00;;;9.55;100.00
55032;BME280;40928;51.076;7.950;2024-02-15T08:43:09;97233.19;;;9.63;100.00
55032;BME280;40928;51.076;7.950;2024-02-15T08:45:35;97229.84;;;9.68;100.00
55032;BME280;40928;51.076;7.950;2024-02-15T08:48:00;97232.06;;;9.71;100.00
55032;BME280;40928;51.076;7.950;2024-02-15T08:50:29;97232.56;;;9.92;100.00
55032;BME280;40928;51.076;7.950;2024-02-15T08:52:55;97225.22;;;9.75;100.00
55032;BME280;40928;51.076;7.950;2024-02-15T08:55:22;97222.69;;;9.80;100.00
55032;BME280;40928;51.076;7.950;2024-02-15T08:57:53;97215.59;;;9.74;100.00
55032;BME280;40928;51.076;7.950;2024-02-15T09:00:18;97224.78;;;9.78;100.00
55032;BME280;40928;51.076;7.950;2024-02-15T09:02:44;97207.25;;;9.70;100.00
55032;BME280;40928;51.076;7.950;2024-02-15T09:05:10;97214.31;;;9.77;100.00
55032;BME280;40928;51.076;7.950;2024-02-15T09:07:43;97203.94;;;9.87;100.00
55032;BME280;40928;51.076;7.950;2024-02-15T09:10:09;97208.22;;;9.88;100.00
55032;BME280;40928;51.076;7.950;2024-02-15T09:12:39;97202.78;;;9.95;100.00
55032;BME280;40928;51.076;7.950;2024-02-15T09:15:07;97195.59;;;10.07;100.00
55032;BME280;40928;51.076;7.950;2024-02-15T09:17:34;97181.88;;;9.92;100.00
55032;BME280;40928;51.076;7.950;2024-02-15T09:20:08;97182.56;;;9.99;100.00
55032;BME280;40928;51.076;7.950;2024-02-15T09:22:49;97178.63;;;9.89;100.00
55032;BME280;40928;51.076;7.950;2024-02-15T09:25:15;97172.25;;;9.90;100.00
55032;BME280;40928;51.076;7.950;2024-02-15T09:27:42;97188.72;;;9.87;100.00
55032;BME280;40928;51.076;7.950;2024-02-15T09:30:08;97191.63;;;9.86;100.00
55032;BME280;40928;51.076;7.950;2024-02-15T09:32:41;97195.56;;;9.83;100.00
55032;BME280;40928;51.076;7.950;2024-02-15T09:35:08;97196.84;;;9.81;100.00
55032;BME280;40928;51.076;7.950;2024-02-15T09:37:38;97196.13;;;9.85;100.00
55032;BME280;40928;51.076;7.950;2024-02-15T09:40:11;97203.69;;;9.88;100.00
55032;BME280;40928;51.076;7.950;2024-02-15T09:42:38;97195.56;;;9.83;100.00
55032;BME280;40928;51.076;7.950;2024-02-15T09:45:07;97197.19;;;9.84;100.00
55032;BME280;40928;51.076;7.950;2024-02-15T09:47:36;97193.00;;;9.88;100.00
55032;BME280;40928;51.076;7.950;2024-02-15T09:50:08;97189.44;;;9.95;100.00
55032;BME280;40928;51.076;7.950;2024-02-15T09:52:38;97179.69;;;10.12;100.00
55032;BME280;40928;51.076;7.950;2024-02-15T09:55:04;97183.41;;;10.23;100.00
55032;BME280;40928;51.076;7.950;2024-02-15T09:57:30;97186.06;;;10.23;100.00
55032;BME280;40928;51.076;7.950;2024-02-15T10:00:00;97185.50;;;10.33;100.00
55032;BME280;40928;51.076;7.950;2024-02-15T10:02:30;97181.09;;;10.39;100.00
55032;BME280;40928;51.076;7.950;2024-02-15T10:04:57;97186.56;;;10.44;100.00
55032;BME280;40928;51.076;7.950;2024-02-15T10:07:25;97190.28;;;10.43;100.00
55032;BME280;40928;51.076;7.950;2024-02-15T10:09:53;97185.03;;;10.36;100.00
55032;BME280;40928;51.076;7.950;2024-02-15T10:12:18;97189.31;;;10.37;100.00
55032;BME280;40928;51.076;7.950;2024-02-15T10:14:49;97189.00;;;10.33;100.00
55032;BME280;40928;51.076;7.950;2024-02-15T10:17:15;97185.72;;;10.43;100.00
55032;BME280;40928;51.076;7.950;2024-02-15T10:19:43;97187.72;;;10.48;100.00
55032;BME280;40928;51.076;7.950;2024-02-15T10:22:10;97178.19;;;10.52;100.00
55032;BME280;40928;51.076;7.950;2024-02-15T10:24:37;97182.25;;;10.66;100.00
55032;BME280;40928;51.076;7.950;2024-02-15T10:27:05;97176.22;;;11.00;100.00
55032;BME280;40928;51.076;7.950;2024-02-15T10:29:33;97182.16;;;11.02;100.00
55032;BME280;40928;51.076;7.950;2024-02-15T10:32:03;97174.31;;;11.12;100.00
55032;BME280;40928;51.076;7.950;2024-02-15T10:34:30;97180.38;;;11.08;100.00
55032;BME280;40928;51.076;7.950;2024-02-15T10:37:17;97173.13;;;11.20;100.00
55032;BME280;40928;51.076;7.950;2024-02-15T10:39:42;97167.34;;;11.11;100.00
55032;BME280;40928;51.076;7.950;2024-02-15T10:42:08;97166.78;;;11.09;100.00
55032;BME280;40928;51.076;7.950;2024-02-15T10:44:37;97169.38;;;11.04;100.00
55032;BME280;40928;51.076;7.950;2024-02-15T10:47:06;97164.81;;;11.05;100.00
55032;BME280;40928;51.076;7.950;2024-02-15T10:49:34;97165.16;;;11.08;100.00
55032;BME280;40928;51.076;7.950;2024-02-15T10:52:01;97168.47;;;11.27;100.00
55032;BME280;40928;51.076;7.950;2024-02-15T10:54:34;97160.47;;;11.45;100.00
55032;BME280;40928;51.076;7.950;2024-02-15T10:57:05;97175.41;;;11.92;100.00
55032;BME280;40928;51.076;7.950;2024-02-15T10:59:37;97171.63;;;12.22;100.00
55032;BME280;40928;51.076;7.950;2024-02-15T11:02:26;97171.97;;;12.70;100.00
55032;BME280;40928;51.076;7.950;2024-02-15T11:05:01;97149.41;;;12.88;100.00
55032;BME280;40928;51.076;7.950;2024-02-15T11:07:29;97167.56;;;12.81;100.00
55032;BME280;40928;51.076;7.950;2024-02-15T11:09:56;97162.25;;;12.63;100.00
55032;BME280;40928;51.076;7.950;2024-02-15T11:12:23;97163.69;;;12.71;100.00
55032;BME280;40928;51.076;7.950;2024-02-15T11:14:50;97153.22;;;12.47;100.00
55032;BME280;40928;51.076;7.950;2024-02-15T11:22:58;97141.94;;;12.06;100.00
55032;BME280;40928;51.076;7.950;2024-02-15T11:25:34;97118.66;;;11.90;100.00
55032;BME280;40928;51.076;7.950;2024-02-15T11:30:56;97128.78;;;12.05;100.00
55032;BME280;40928;51.076;7.950;2024-02-15T11:36:10;97126.06;;;12.83;100.00
55032;BME280;40928;51.076;7.950;2024-02-15T11:38:38;97119.91;;;13.10;100.00
55032;BME280;40928;51.076;7.950;2024-02-15T11:41:09;97115.25;;;13.28;100.00
55032;BME280;40928;51.076;7.950;2024-02-15T11:43:48;97114.47;;;13.54;100.00
55032;BME280;40928;51.076;7.950;2024-02-15T11:46:27;97111.13;;;13.75;100.00
55032;BME280;40928;51.076;7.950;2024-02-15T11:48:58;97118.13;;;13.76;100.00
55032;BME280;40928;51.076;7.950;2024-02-15T11:51:35;97108.13;;;13.71;98.44
55032;BME280;40928;51.076;7.950;2024-02-15T11:54:11;97115.53;;;13.59;100.00
55032;BME280;40928;51.076;7.950;2024-02-15T11:56:56;97119.47;;;13.78;93.53
55032;BME280;40928;51.076;7.950;2024-02-15T11:59:51;97114.38;;;13.82;94.84
55032;BME280;40928;51.076;7.950;2024-02-15T12:02:39;97107.34;;;14.13;93.11
55032;BME280;40928;51.076;7.950;2024-02-15T12:05:23;97103.22;;;14.49;94.07
55032;BME280;40928;51.076;7.950;2024-02-15T12:08:10;97101.09;;;14.56;90.71
55032;BME280;40928;51.076;7.950;2024-02-15T12:11:00;97096.78;;;14.44;90.96
55032;BME280;40928;51.076;7.950;2024-02-15T12:13:51;97081.44;;;14.40;91.00
55032;BME280;40928;51.076;7.950;2024-02-15T12:16:36;97091.41;;;14.44;91.42
55032;BME280;40928;51.076;7.950;2024-02-15T12:19:20;97074.63;;;14.22;92.58
55032;BME280;40928;51.076;7.950;2024-02-15T12:21:47;97083.09;;;14.03;92.27
55032;BME280;40928;51.076;7.950;2024-02-15T12:24:13;97077.47;;;13.99;90.32
55032;BME280;40928;51.076;7.950;2024-02-15T12:26:39;97077.13;;;13.91;90.90
55032;BME280;40928;51.076;7.950;2024-02-15T12:29:07;97077.34;;;13.84;91.20
55032;BME280;40928;51.076;7.950;2024-02-15T12:31:35;97080.09;;;13.57;91.76
55032;BME280;40928;51.076;7.950;2024-02-15T12:34:04;97074.31;;;13.37;93.95
55032;BME280;40928;51.076;7.950;2024-02-15T12:36:34;97081.72;;;13.25;94.39
55032;BME280;40928;51.076;7.950;2024-02-15T12:39:03;97082.13;;;13.12;95.60
55032;BME280;40928;51.076;7.950;2024-02-15T12:41:57;97077.06;;;13.15;94.88
55032;BME280;40928;51.076;7.950;2024-02-15T12:44:22;97077.19;;;13.31;93.54
55032;BME280;40928;51.076;7.950;2024-02-15T12:46:55;97070.19;;;12.97;94.76
55032;BME280;40928;51.076;7.950;2024-02-15T12:51:52;97077.97;;;12.99;97.32
55032;BME280;40928;51.076;7.950;2024-02-15T12:54:22;97078.31;;;13.07;97.83
55032;BME280;40928;51.076;7.950;2024-02-15T12:56:47;97070.06;;;13.14;97.66
55032;BME280;40928;51.076;7.950;2024-02-15T12:59:19;97077.47;;;13.02;97.32
55032;BME280;40928;51.076;7.950;2024-02-15T13:01:45;97074.72;;;12.97;97.28
55032;BME280;40928;51.076;7.950;2024-02-15T13:04:25;97074.16;;;12.94;96.44
55032;BME280;40928;51.076;7.950;2024-02-15T13:06:51;97072.38;;;12.78;97.30
55032;BME280;40928;51.076;7.950;2024-02-15T13:09:17;97061.38;;;12.74;98.12
55032;BME280;40928;51.076;7.950;2024-02-15T13:11:42;97052.78;;;12.72;98.70
55032;BME280;40928;51.076;7.950;2024-02-15T13:14:11;97054.81;;;12.87;98.23
55032;BME280;40928;51.076;7.950;2024-02-15T13:16:36;97046.28;;;12.90;98.03
55032;BME280;40928;51.076;7.950;2024-02-15T13:19:02;97044.75;;;13.00;97.83
55032;BME280;40928;51.076;7.950;2024-02-15T13:21:28;97043.78;;;13.11;95.58
55032;BME280;40928;51.076;7.950;2024-02-15T13:23:56;97024.28;;;12.88;95.37
55032;BME280;40928;51.076;7.950;2024-02-15T13:26:21;97034.16;;;12.83;97.07
55032;BME280;40928;51.076;7.950;2024-02-15T13:28:56;97029.59;;;12.83;95.89